Webcam & Weather

This webcam image will automatically refresh every 15 seconds.


METAR and TAF for EGLL Heathrow (12 Nautical Miles East of White Waltham)

METAR FOR EGLL (Issued: Mon, May 29th 2017 7:20 AM UTC):
EGLL 290720Z 07006KT 9999 BKN010 16/14 Q1013

TAF FOR EGLL (Issued: Mon, May 29th 2017 6:15 AM UTC):
TAF EGLL 290456Z 2906/3012 10005KT 9999 FEW010 SCT040 TEMPO 2906/2911 7000 BKN010 PROB30 TEMPO 2906/2909 4500 BR BKN008 BECMG 2911/2914 23010KT PROB30 TEMPO 2911/2917 4000 +SHRA RA BKN014 BKN040CB PROB30 TEMPO 3002/3008 7000 BKN012

Play 24 hour timelapse | Play 30 day timelapse

Comments are closed.